Weather observations for the past three days for
Jackson, Jackson Hole Airport
Imperial (Metric)
Date Time (mdt) Wind (mph) Vis. (mi.) Weather Sky Cond. Temperature (ºF) Relative Humidity Wind Chill (°F) Heat Index (°F) Pressure Precipitation (in)
Air Dwpt 6 hour altimeter (in) sea level (mb) 1 hr 3 hr 6 hr
Max. Min.
02 15:56 W 9 G 17 10.00 Partly Cloudy SCT100 64 19 18% 30.12 1019.0
02 14:56 Vrbl 7 10.00 Fair CLR 63 19 18% 30.14 1019.5
02 13:56 Vrbl 7 10.00 Fair CLR 61 18 19% 30.16 1020.1
02 12:56 S 9 10.00 Fair CLR 60.1 19.9 21% 30.18 1021.2
02 11:56 Calm 10.00 Fair CLR 55.9 24.1 55.9 19.9 29% 30.21 1022.1
02 10:56 S 6 10.00 Fair CLR 50 21.9 33% 48 30.23 1024.0
02 09:56 Calm 10.00 Fair CLR 45 19.9 37% 30.25 1023.4
02 08:56 Calm 10.00 Fair CLR 39 19.9 46% 30.26 1024.7
02 07:56 Calm 10.00 Fair CLR 32 21 64% 30.27 1025.3
02 06:56 NE 3 10.00 Fair CLR 24.1 19 81% 30.26 1024.8
02 05:56 N 7 10.00 Fair CLR 23 18 35.1 23 81% 16 30.25 1025.0
02 04:56 N 5 10.00 Fair CLR 28 19.9 72% 24 30.26 1024.2
02 03:56 NE 7 10.00 Fair CLR 26.1 18 71% 19 30.25 1024.2
02 02:56 NE 3 10.00 Fair CLR 28 19.9 72% 30.24 1024.0
02 01:56 N 7 10.00 Fair CLR 30.9 21 67% 25 30.24 1023.7
02 00:56 N 3 10.00 Fair CLR 30 21 69% 30.23 1023.8
01 23:56 N 5 10.00 Fair CLR 35.1 19.9 60.1 30 54% 32 30.22 1023.4
01 22:56 N 6 10.00 Fair CLR 34 21 59% 29 30.21 1023.6
01 21:56 E 5 10.00 Fair CLR 46 18 33% 44 30.2 1022.0
01 20:56 Calm 10.00 Fair CLR 46 19.9 35% 30.17 1021.7
01 19:56 NW 6 10.00 Fair CLR 52 18 26% 30.16 1021.5
01 18:56 N 7 10.00 Fair CLR 59 12.9 16% 30.16 1021.5
01 17:56 NW 12 10.00 Fair CLR 59 10.9 61 48 15% 30.16 1021.5
01 16:56 N 14 G 18 10.00 Fair CLR 60.1 10.9 14% 30.16 1021.6
01 15:56 N 9 10.00 Fair CLR 60.1 12 15% 30.17 1022.0
01 14:56 SW 7 10.00 Fair CLR 57.9 12.9 17% 30.19 1022.3
01 13:56 NW 6 10.00 Fair CLR 55 16 21% 30.2 1022.6
01 12:56 NE 3 10.00 Fair CLR 53.1 12 19% 30.21 1022.8
01 11:56 Calm 10.00 Fair CLR 48.9 15.1 48.9 21 26% 30.23 1024.4
01 10:56 Vrbl 3 10.00 Fair CLR 46 21 37% 30.25 1025.4
01 09:56 S 3 10.00 Fair CLR 42.1 21 43% 30.26 1025.6
01 08:56 N 7 10.00 Fair CLR 37 19.9 50% 32 30.27 1026.0
01 07:56 N 5 10.00 Fair CLR 30 21 69% 26 30.27 1026.3
01 06:56 NE 6 10.00 Fair CLR 23 18 81% 17 30.25 1026.1
01 05:56 NE 7 10.00 Fair CLR 21.9 18 33.1 21 85% 14 30.23 1025.3
01 04:56 NE 3 10.00 Fair CLR 21 17.1 85% 30.23 1025.5
01 03:56 NE 6 10.00 Fair CLR 21.9 17.1 82% 15 30.22 1024.9
01 02:56 N 5 10.00 Fair CLR 25 19 78% 20 30.22 1024.7
01 01:56 NE 6 10.00 Fair CLR 28 19 69% 22 30.22 1024.6
01 00:56 NW 6 10.00 Fair CLR 32 18 56% 27 30.22 1024.1
30 23:56 SW 3 10.00 Fair CLR 30.9 18 52 30.9 59% 30.21 1024.1
30 22:56 N 13 10.00 Fair CLR 32 18 56% 23 30.19 1023.7
30 21:56 NE 10 10.00 Fair CLR 35.1 17.1 48% 28 30.17 1022.9
30 20:56 NE 10 10.00 Fair CLR 39.9 16 38% 34 30.15 1021.8
30 19:56 N 8 10.00 Fair CLR 45 14 29% 41 30.13 1021.2
30 18:56 N 13 10.00 Fair CLR 50 12.9 22% 46 30.12 1020.6
30 17:56 N 13 10.00 Fair CLR 52 12.9 53.1 44.1 21% 30.12 1020.4
30 16:56 N 13 G 17 10.00 Fair CLR 51.1 14 23% 30.12 1020.7
30 15:56 NE 9 G 20 10.00 A Few Clouds FEW080 52 15.1 23% 30.13 1020.7
30 14:56 Vrbl 6 G 18 10.00 A Few Clouds FEW075 51.1 16 25% 30.14 1020.9
30 13:56 NW 6 G 17 10.00 Fair CLR 46.9 16 29% 45 30.15 1021.7
30 12:56 N 8 10.00 Fair CLR 48 19 32% 45 30.16 1021.9
30 11:56 NE 8 10.00 Fair CLR 45 19 46 27 35% 41 30.18 1023.3
30 10:56 N 12 G 18 10.00 Fair CLR 43 19 38% 37 30.19 1023.5
30 09:56 N 15 10.00 Fair CLR 39.9 21 47% 32 30.2 1023.9
30 08:56 N 16 10.00 Fair CLR 37 21 52% 28 30.21 1024.7
30 07:56 N 16 10.00 Partly Cloudy SCT038 32 24.1 73% 22 30.21 1025.6
30 06:56 N 16 10.00 Mostly Cloudy BKN040 28 23 81% 17 30.21 1025.6
30 05:56 N 15 10.00 Mostly Cloudy BKN040 28 25 32 27 88% 17 30.2 1024.8
30 04:56 N 14 10.00 A Few Clouds FEW039 27 25 92% 16 30.2 1024.5
30 03:56 N 15 10.00 Fair CLR 28.9 25 85% 18 30.19 1024.2
30 02:56 N 14 10.00 Fair CLR 30 27 88% 20 30.2 1024.3
30 01:56 N 13 10.00 Fair CLR 30 26.1 85% 21 30.2 1024.3
30 00:56 N 13 10.00 Fair CLR 30.9 28 89% 22 30.2 1024.3
29 23:56 Calm 10.00 Fair CLR 30 27 41 30 88% 30.2 1025.0
29 22:56 NW 6 10.00 Fair CLR 32 28 85% 27 30.2 1024.3
29 21:56 N 12 10.00 Fair CLR 35.1 28.9 78% 28 30.2 1024.2
29 20:56 N 6 10.00 A Few Clouds FEW090 34 30.9 89% 29 30.19 1024.6
29 19:56 SW 5 10.00 Fair CLR 36 30.9 82% 33 30.17 1024.1
29 18:56 SE 12 10.00 Overcast OVC065 37 33.1 86% 30 30.15 1024.3
29 17:56 NW 13 10.00 Overcast OVC046 42.1 28 45 37 58% 36 30.15 1023.3
29 16:56 N 13 10.00 Mostly Cloudy BKN065 BKN080 45 28.9 54% 39 30.14 1022.5
Date Time (mdt) Wind (mph) Vis. (mi.) Weather Sky Cond. Air Dwpt Max. Min. Relative Humidity Wind Chill (°F) Heat Index (°F) altimeter (in) sea level (mb) 1 hr 3 hr 6 hr
6 hour
Temperature (ºF) Pressure Precipitation (in)